Soaring Guidance
Issued by NWS Reno, NV

Home | Current Version | Previous Version | Text Only | Print | Product List | Glossary On
Versions: 1 2 3 4 5 6 7 8 9 10 11 12 13 14 15 16
000
UXUS97 KREV 271346
SRGREV

SOARING FORECAST
NATIONAL WEATHER SERVICE - RENO NV
700 AM PDT FRI MAR 27 2015

THIS SOARING FORECAST IS FOR THE EASTERN SIERRA AND WESTERN NEVADA
WITH SPECIFIC INDICES FOR THE GREATER RENO AREA.

THIS FORECAST IS NOT UPDATED.

FOR CURRENT FLIGHT CONDITIONS...FORECASTS...AND ADVISORIES...ACCESS
YOUR LOCAL BRIEFING OUTLET OR FLIGHT SERVICE STATION.

*******************************************************************
LOCAL INDICES FOR RENO:                   TODAY     YESTERDAY
MAXIMUM TEMPERATURE AT RENO...(DEG F)...     79
TRIGGER TEMPERATURE...........(DEG F)...     67          61
   EXCEEDED YESTERDAY BY 19Z
MAXIMUM ALTITUDE..............(FT MSL)..  13900       11800
SOARING INDEX.................(FPM).....    747         474
FORECASTED K-INDEX.........VALID 18Z....     10          13
FORECASTED K-INDEX.........VALID 00Z....     16          20
FORECASTED LIFTED INDEX....VALID 18Z....      6           5
FORECASTED LIFTED INDEX....VALID 00Z....      3           5

AFTERNOON WINDS ALOFT FORECAST
MSL (FT) WIND/TEMP
9000  2417/+08
10000 2219/+06
12000 2222/+02
14000 2221/-03
16000 2220/-08
18000 2218/-14
24000 2240/-27
30000 2249/-43
34000 2348/-45
39000 2438/-46

SLIDE MOUNTAIN DATA:
 SLD HR 1240 M 40/27/2205/M  /SLIDE MTN UNOFFICIAL OBSERVATION

RENO TAF FORECAST:
KRNO 271129Z 2712/2812 VRB04KT P6SM SKC
     FM272000 20009G17KT P6SM SKC
     FM280000 25014G24KT P6SM FEW200
     FM280400 29011G20KT P6SM SCT200
     FM280700 32008KT P6SM SCT200

CARSON CITY TAF FORECAST:
KCXP 271129Z 2712/2812 VRB03KT P6SM SKC
     FM272000 20009G17KT P6SM SKC
     FM280000 24012G22KT P6SM FEW200
     FM280300 28011G19KT P6SM SCT200
     FM280600 30007KT P6SM SCT200

OUTLOOK FOR THE RENO-CARSON CITY-MINDEN AREA:
.SATURDAY...PARTLY CLOUDY. HIGHS 64 TO 74. NORTHWEST WINDS AROUND
10 MPH SHIFTING TO THE NORTHEAST IN THE AFTERNOON.

SUNRISE AND SUNSET
MARCH 27 2015.........SUNRISE   652 AM PDT   SUNSET   718 PM PDT
MARCH 28 2015.........SUNRISE   650 AM PDT   SUNSET   719 PM PDT



THIS PRODUCT IS ROUTINELY PREPARED BY 700 AM AND IS
DISTRIBUTED TO THE RENO FLIGHT SERVICE STATION AS WELL AS THE
NATIONAL WEATHER SERVICE WORLD WIDE WEB HOMEPAGE AT:
       HTTP://WWW.WEATHER.GOV/RENO





USA.gov is the U.S. government's official web portal to all federal, state and local government web resources and services.